עמוד ראשי
METAR-TAF:

METAR-TAF

שדות תעופה :

נמל התעופה הבינלאומי סונאן

פיונגיאנג, קוריאה הצפונית

קו רוחב: 39-02N, קו אורך: 125-47E, גובה: 36מטר

METAR: חסר

זמן: 06:11 (21:11 UTC)

תחזית

הדו"ח נערך לפני 4 שעות ו 11דקות, בשעה 17:00 UTC
תחזית בתוקף מ 24 ב 18 UTC עד 25 ב 18 UTC
רוח 6קשר מכיוון דרום
ראות 10 קילומטר או יותר
מעונן בגובה 2000רגל
זמנית מ -
25 ב 07 UTC עד 25 ב 13 UTC
ראות: 5000מטר
עננים בינוניים בגובה 2700רגל , קומולונימבוס.
ממטרי גשם קלים,

TAF: ZKPY 241700Z 2418/2518 18003MPS 9999 OVC020 TX30/2506Z TN25/2521Z TEMPO 2507/2513 5000 -SHRA BKN027CB

תצפיות ותחזיות מזג אוויר לגבי יותר מ- 4,000 שדות תעופה ברחבי העולם. דוחות METAR ו- TAF.

התחנות הזמינות מסומנות בנקודות צהובות ואדומות על גבי המפה.

העבר את העכבר לנקודה הצבעונית על מנת לראות את שם התחנה.

לאחר מכן, לחץ כדי לראות את תוכן ואת תחזיות מזג האוויר.

כדי לשנות את המפה: לחץ על הכפתורים הירוקים עם הפלוס השחור כדי להתקרב; על הכפתור הירוק עם המקף כדי להתרחק; או בחיצים הירוקים למפות סמוכות.


METAR-TAF: